Pagrindinis puslapis
METAR-TAF:

METAR-TAF

Oro uostai :

Kuveitas, Kuveitas

platuma: 29-13N, ilguma: 047-59E, Aukštis: 55 m

Dabartinis oras

Ataskaita buvo paskelbta 47 minutes, ne 09:00 UTC
Vėjas 9 kt iš Šiaurės
Temperatūra 19°C
Drėgmė 88%
Slėgis 1018 hPa
Matomumas: 3000 m
Išsisklaidę debesys ne aukštis 4000 ft
Apsiniaukę ne aukštis 8000 ft
rūkana

METAR: OKBK 070900Z 01009KT 3000 BR SCT040 OVC080 19/17 Q1018 NOSIG

Laikas: 12:47 (09:47 UTC)

Prognozė

Ataskaita buvo paskelbta 4 valandos ir 47 minutes, ne 05:00 UTC
Prognozė galioja nuo 07 metu 06 UTC su 08 metu 12 UTC
Vėjas 10 kt iš Šiaurės
Matomumas: 6000 m
Mažai debesys ne aukštis 4000 ft
Su prošvaistėmis ne aukštis 8000 ft
Laikinai
nuo 07 metu 06 UTC su 07 metu 10 UTC
Vėjas 3 kt nuo kintamojo kryptimis
Matomumas: 3000 m
lietus, rūkana

TAF: OKBK 070500Z 0706/0812 36010KT 6000 FEW040 BKN080 TEMPO 0706/0710 VRB03KT 3000 RA BR

Orai ataskaitas ir orų prognozės (METAR, TAF).

turimą stotys yra geltonos ir raudonos taškus žemėlapyje.

Perkelti pele per norėdami pamatyti stoties vardą.

Tada spustelėkite, norėdami matyti oro stebėjimo ir prognozės.

Norėdami pakeisti žemėlapį: spustelėkite ant žalios mygtukų su juodo kryžiaus žemyn,; žalią mygtuką su brūkšneliu, jei norite nutolinti; arba žalių rodyklių gretimoms žemėlapius.


METAR-TAF: